sensor_id;sensor_type;location;lat;lon;timestamp;pressure;altitude;pressure_sealevel;temperature;humidity
69982;BME280;57319;56.274;43.980;2023-04-28T00:01:18;99485.38;;;12.05;63.40
69982;BME280;57319;56.274;43.980;2023-04-28T00:03:44;99493.06;;;12.07;63.26
69982;BME280;57319;56.274;43.980;2023-04-28T00:06:10;99491.44;;;12.03;64.44
69982;BME280;57319;56.274;43.980;2023-04-28T00:08:36;99490.69;;;11.98;64.82
69982;BME280;57319;56.274;43.980;2023-04-28T00:11:02;99495.91;;;11.95;64.77
69982;BME280;57319;56.274;43.980;2023-04-28T00:13:28;99493.50;;;11.85;65.09
69982;BME280;57319;56.274;43.980;2023-04-28T00:15:54;99492.81;;;11.79;65.47
69982;BME280;57319;56.274;43.980;2023-04-28T00:18:20;99492.03;;;11.75;66.12
69982;BME280;57319;56.274;43.980;2023-04-28T00:20:46;99493.00;;;11.69;65.01
69982;BME280;57319;56.274;43.980;2023-04-28T00:23:12;99491.41;;;11.64;64.82
69982;BME280;57319;56.274;43.980;2023-04-28T00:25:38;99491.44;;;11.62;65.64
69982;BME280;57319;56.274;43.980;2023-04-28T00:28:03;99490.72;;;11.56;65.90
69982;BME280;57319;56.274;43.980;2023-04-28T00:30:30;99493.38;;;11.51;66.12
69982;BME280;57319;56.274;43.980;2023-04-28T00:32:56;99491.78;;;11.45;66.20
69982;BME280;57319;56.274;43.980;2023-04-28T00:35:22;99489.31;;;11.41;66.67
69982;BME280;57319;56.274;43.980;2023-04-28T00:37:47;99489.41;;;11.34;66.73
69982;BME280;57319;56.274;43.980;2023-04-28T00:40:13;99488.69;;;11.28;67.28
69982;BME280;57319;56.274;43.980;2023-04-28T00:42:39;99486.19;;;11.25;66.55
69982;BME280;57319;56.274;43.980;2023-04-28T00:45:05;99494.84;;;11.20;66.26
69982;BME280;57319;56.274;43.980;2023-04-28T00:47:33;99487.28;;;11.13;66.59
69982;BME280;57319;56.274;43.980;2023-04-28T00:50:03;99490.81;;;11.07;66.87
69982;BME280;57319;56.274;43.980;2023-04-28T00:52:32;99500.44;;;10.97;66.84
69982;BME280;57319;56.274;43.980;2023-04-28T00:54:58;99490.31;;;10.88;67.09
69982;BME280;57319;56.274;43.980;2023-04-28T00:57:24;99501.56;;;10.84;66.74
69982;BME280;57319;56.274;43.980;2023-04-28T00:59:49;99492.19;;;10.80;67.05
69982;BME280;57319;56.274;43.980;2023-04-28T01:02:16;99494.75;;;10.80;67.16
69982;BME280;57319;56.274;43.980;2023-04-28T01:04:43;99487.16;;;10.72;67.96
69982;BME280;57319;56.274;43.980;2023-04-28T01:07:09;99494.09;;;10.67;68.50
69982;BME280;57319;56.274;43.980;2023-04-28T01:09:35;99491.63;;;10.62;68.47
69982;BME280;57319;56.274;43.980;2023-04-28T01:12:01;99493.31;;;10.63;68.74
69982;BME280;57319;56.274;43.980;2023-04-28T01:14:26;99491.69;;;10.58;68.97
69982;BME280;57319;56.274;43.980;2023-04-28T01:16:52;99495.19;;;10.53;68.57
69982;BME280;57319;56.274;43.980;2023-04-28T01:19:22;99488.41;;;10.48;68.77
69982;BME280;57319;56.274;43.980;2023-04-28T01:21:48;99502.22;;;10.44;68.81
69982;BME280;57319;56.274;43.980;2023-04-28T01:24:14;99498.91;;;10.34;68.90
69982;BME280;57319;56.274;43.980;2023-04-28T01:26:40;99503.25;;;10.30;68.93
69982;BME280;57319;56.274;43.980;2023-04-28T01:29:06;99506.81;;;10.22;69.58
69982;BME280;57319;56.274;43.980;2023-04-28T01:31:31;99506.03;;;10.15;69.93
69982;BME280;57319;56.274;43.980;2023-04-28T01:33:57;99500.97;;;10.10;69.65
69982;BME280;57319;56.274;43.980;2023-04-28T01:36:23;99506.19;;;10.07;70.11
69982;BME280;57319;56.274;43.980;2023-04-28T01:38:51;99505.34;;;10.05;70.02
69982;BME280;57319;56.274;43.980;2023-04-28T01:41:17;99502.78;;;10.04;70.33
69982;BME280;57319;56.274;43.980;2023-04-28T01:43:43;99501.97;;;10.01;70.06
69982;BME280;57319;56.274;43.980;2023-04-28T01:46:09;99501.09;;;10.02;70.51
69982;BME280;57319;56.274;43.980;2023-04-28T01:48:34;99505.38;;;10.04;70.55
69982;BME280;57319;56.274;43.980;2023-04-28T01:51:00;99507.16;;;9.98;71.23
69982;BME280;57319;56.274;43.980;2023-04-28T01:53:26;99509.69;;;10.00;71.45
69982;BME280;57319;56.274;43.980;2023-04-28T01:55:52;99509.69;;;10.00;71.45
69982;BME280;57319;56.274;43.980;2023-04-28T01:58:18;99517.41;;;10.00;71.27
69982;BME280;57319;56.274;43.980;2023-04-28T02:00:44;99514.88;;;9.97;71.31
69982;BME280;57319;56.274;43.980;2023-04-28T02:03:10;99518.34;;;9.94;71.31
69982;BME280;57319;56.274;43.980;2023-04-28T02:05:36;99519.25;;;9.93;71.40
69982;BME280;57319;56.274;43.980;2023-04-28T02:08:02;99528.66;;;9.93;71.73
69982;BME280;57319;56.274;43.980;2023-04-28T02:10:28;99523.53;;;9.91;71.63
69982;BME280;57319;56.274;43.980;2023-04-28T02:12:53;99516.69;;;9.90;72.02
69982;BME280;57319;56.274;43.980;2023-04-28T02:15:19;99521.78;;;9.95;72.34
69982;BME280;57319;56.274;43.980;2023-04-28T02:17:46;99514.00;;;9.99;72.21
69982;BME280;57319;56.274;43.980;2023-04-28T02:20:12;99520.78;;;10.04;72.18
69982;BME280;57319;56.274;43.980;2023-04-28T02:22:39;99526.69;;;10.10;72.11
69982;BME280;57319;56.274;43.980;2023-04-28T02:25:06;99524.03;;;10.16;72.18
69982;BME280;57319;56.274;43.980;2023-04-28T02:27:31;99527.34;;;10.25;72.53
69982;BME280;57319;56.274;43.980;2023-04-28T02:29:59;99536.72;;;10.30;71.97
69982;BME280;57319;56.274;43.980;2023-04-28T02:32:25;99530.69;;;10.34;71.50
69982;BME280;57319;56.274;43.980;2023-04-28T02:34:54;99534.00;;;10.40;71.48
69982;BME280;57319;56.274;43.980;2023-04-28T02:37:20;99533.94;;;10.44;71.57
69982;BME280;57319;56.274;43.980;2023-04-28T02:39:46;99532.16;;;10.48;71.19
69982;BME280;57319;56.274;43.980;2023-04-28T02:42:11;99540.75;;;10.48;71.65
69982;BME280;57319;56.274;43.980;2023-04-28T02:44:37;99544.06;;;10.55;71.20
69982;BME280;57319;56.274;43.980;2023-04-28T02:47:03;99541.41;;;10.61;70.92
69982;BME280;57319;56.274;43.980;2023-04-28T02:49:28;99544.69;;;10.69;70.64
69982;BME280;57319;56.274;43.980;2023-04-28T02:51:55;99542.84;;;10.78;70.21
69982;BME280;57319;56.274;43.980;2023-04-28T02:54:20;99548.69;;;10.88;69.52
69982;BME280;57319;56.274;43.980;2023-04-28T02:56:55;99544.25;;;10.96;68.79
69982;BME280;57319;56.274;43.980;2023-04-28T02:59:22;99548.41;;;11.05;68.55
69982;BME280;57319;56.274;43.980;2023-04-28T03:01:49;99549.09;;;11.13;67.93
69982;BME280;57319;56.274;43.980;2023-04-28T03:04:15;99542.06;;;11.23;67.85
69982;BME280;57319;56.274;43.980;2023-04-28T03:06:41;99540.13;;;11.34;67.56
69982;BME280;57319;56.274;43.980;2023-04-28T03:09:07;99538.22;;;11.44;67.05
69982;BME280;57319;56.274;43.980;2023-04-28T03:11:33;99542.31;;;11.54;67.10
69982;BME280;57319;56.274;43.980;2023-04-28T03:13:59;99539.50;;;11.65;66.86
69982;BME280;57319;56.274;43.980;2023-04-28T03:16:24;99543.69;;;11.70;66.87
69982;BME280;57319;56.274;43.980;2023-04-28T03:18:50;99545.19;;;11.81;66.47
69982;BME280;57319;56.274;43.980;2023-04-28T03:21:16;99544.13;;;11.91;66.77
69982;BME280;57319;56.274;43.980;2023-04-28T03:23:41;99547.44;;;11.99;65.98
69982;BME280;57319;56.274;43.980;2023-04-28T03:26:07;99552.31;;;12.10;65.67
69982;BME280;57319;56.274;43.980;2023-04-28T03:28:33;99557.28;;;12.19;65.22
69982;BME280;57319;56.274;43.980;2023-04-28T03:30:59;99554.41;;;12.32;64.66
69982;BME280;57319;56.274;43.980;2023-04-28T03:33:24;99548.97;;;12.44;64.23
69982;BME280;57319;56.274;43.980;2023-04-28T03:35:50;99550.38;;;12.58;63.86
69982;BME280;57319;56.274;43.980;2023-04-28T03:38:16;99558.66;;;12.70;63.27
69982;BME280;57319;56.274;43.980;2023-04-28T03:40:41;99558.41;;;12.81;63.17
69982;BME280;57319;56.274;43.980;2023-04-28T03:43:07;99558.09;;;12.94;62.81
69982;BME280;57319;56.274;43.980;2023-04-28T03:45:33;99556.06;;;13.05;62.52
69982;BME280;57319;56.274;43.980;2023-04-28T03:47:58;99554.97;;;13.15;62.07
69982;BME280;57319;56.274;43.980;2023-04-28T03:50:24;99559.75;;;13.29;61.64
69982;BME280;57319;56.274;43.980;2023-04-28T03:52:50;99572.44;;;13.40;61.46
69982;BME280;57319;56.274;43.980;2023-04-28T03:55:15;99564.47;;;13.48;61.40
69982;BME280;57319;56.274;43.980;2023-04-28T03:57:41;99566.81;;;13.55;61.21
69982;BME280;57319;56.274;43.980;2023-04-28T04:00:07;99564.81;;;13.65;60.94
69982;BME280;57319;56.274;43.980;2023-04-28T04:02:34;99561.94;;;13.76;60.61
69982;BME280;57319;56.274;43.980;2023-04-28T04:05:00;99566.81;;;13.87;60.31
69982;BME280;57319;56.274;43.980;2023-04-28T04:07:25;99568.25;;;13.97;60.09
69982;BME280;57319;56.274;43.980;2023-04-28T04:09:51;99558.47;;;14.07;59.77
69982;BME280;57319;56.274;43.980;2023-04-28T04:12:17;99557.22;;;14.19;59.24
69982;BME280;57319;56.274;43.980;2023-04-28T04:14:43;99558.66;;;14.29;58.83
69982;BME280;57319;56.274;43.980;2023-04-28T04:17:08;99554.84;;;14.39;58.47
69982;BME280;57319;56.274;43.980;2023-04-28T04:19:34;99566.53;;;14.53;58.09
69982;BME280;57319;56.274;43.980;2023-04-28T04:22:00;99566.22;;;14.64;57.03
69982;BME280;57319;56.274;43.980;2023-04-28T04:24:25;99556.28;;;14.76;56.44
69982;BME280;57319;56.274;43.980;2023-04-28T04:26:51;99556.81;;;14.86;56.22
69982;BME280;57319;56.274;43.980;2023-04-28T04:29:17;99562.53;;;14.98;55.92
69982;BME280;57319;56.274;43.980;2023-04-28T04:31:42;99567.34;;;15.08;55.33
69982;BME280;57319;56.274;43.980;2023-04-28T04:34:10;99565.28;;;15.18;54.40
69982;BME280;57319;56.274;43.980;2023-04-28T04:36:36;99563.91;;;15.32;53.75
69982;BME280;57319;56.274;43.980;2023-04-28T04:39:02;99569.66;;;15.41;52.12
69982;BME280;57319;56.274;43.980;2023-04-28T04:41:28;99577.94;;;15.51;51.52
69982;BME280;57319;56.274;43.980;2023-04-28T04:43:53;99575.88;;;15.61;51.13
69982;BME280;57319;56.274;43.980;2023-04-28T04:46:19;99576.50;;;15.68;50.77
69982;BME280;57319;56.274;43.980;2023-04-28T04:48:45;99575.34;;;15.75;50.42
69982;BME280;57319;56.274;43.980;2023-04-28T04:51:10;99576.00;;;15.82;50.68
69982;BME280;57319;56.274;43.980;2023-04-28T04:53:36;99582.59;;;15.90;51.04
69982;BME280;57319;56.274;43.980;2023-04-28T04:56:02;99580.63;;;15.97;50.93
69982;BME280;57319;56.274;43.980;2023-04-28T04:58:28;99580.41;;;16.03;50.60
69982;BME280;57319;56.274;43.980;2023-04-28T05:00:53;99591.28;;;16.13;50.53
69982;BME280;57319;56.274;43.980;2023-04-28T05:03:19;99585.97;;;16.16;50.49
69982;BME280;57319;56.274;43.980;2023-04-28T05:05:46;99584.88;;;16.22;49.55
69982;BME280;57319;56.274;43.980;2023-04-28T05:08:12;99587.34;;;16.25;49.31
69982;BME280;57319;56.274;43.980;2023-04-28T05:10:38;99591.44;;;16.31;49.36
69982;BME280;57319;56.274;43.980;2023-04-28T05:13:04;99593.03;;;16.35;49.13
69982;BME280;57319;56.274;43.980;2023-04-28T05:15:31;99591.28;;;16.35;48.26
69982;BME280;57319;56.274;43.980;2023-04-28T05:17:57;99591.16;;;16.38;48.66
69982;BME280;57319;56.274;43.980;2023-04-28T05:20:23;99594.38;;;16.45;48.51
69982;BME280;57319;56.274;43.980;2023-04-28T05:22:49;99585.53;;;16.49;47.59
69982;BME280;57319;56.274;43.980;2023-04-28T05:25:15;99587.00;;;16.56;46.83
69982;BME280;57319;56.274;43.980;2023-04-28T05:27:40;99595.31;;;16.65;47.41
69982;BME280;57319;56.274;43.980;2023-04-28T05:30:07;99587.34;;;16.69;46.83
69982;BME280;57319;56.274;43.980;2023-04-28T05:32:35;99588.06;;;16.73;46.26
69982;BME280;57319;56.274;43.980;2023-04-28T05:35:01;99586.34;;;16.72;46.75
69982;BME280;57319;56.274;43.980;2023-04-28T05:37:27;99587.03;;;16.77;46.68
69982;BME280;57319;56.274;43.980;2023-04-28T05:39:53;99587.69;;;16.82;46.85
69982;BME280;57319;56.274;43.980;2023-04-28T05:42:18;99587.47;;;16.87;46.78
69982;BME280;57319;56.274;43.980;2023-04-28T05:44:44;99590.56;;;16.96;46.65
69982;BME280;57319;56.274;43.980;2023-04-28T05:47:10;99587.59;;;17.06;46.53
69982;BME280;57319;56.274;43.980;2023-04-28T05:49:36;99593.38;;;17.12;46.26
69982;BME280;57319;56.274;43.980;2023-04-28T05:52:02;99592.28;;;17.18;46.52
69982;BME280;57319;56.274;43.980;2023-04-28T05:54:28;99595.47;;;17.25;46.35
69982;BME280;57319;56.274;43.980;2023-04-28T05:56:54;99592.66;;;17.29;46.08
69982;BME280;57319;56.274;43.980;2023-04-28T05:59:20;99590.66;;;17.36;45.91
69982;BME280;57319;56.274;43.980;2023-04-28T06:01:46;99590.53;;;17.39;45.93
69982;BME280;57319;56.274;43.980;2023-04-28T06:04:11;99585.88;;;17.46;45.80
69982;BME280;57319;56.274;43.980;2023-04-28T06:06:37;99585.56;;;17.54;45.95
69982;BME280;57319;56.274;43.980;2023-04-28T06:09:03;99580.84;;;17.62;45.55
69982;BME280;57319;56.274;43.980;2023-04-28T06:11:28;99585.91;;;17.65;45.79
69982;BME280;57319;56.274;43.980;2023-04-28T06:13:54;99583.97;;;17.70;45.09
69982;BME280;57319;56.274;43.980;2023-04-28T06:16:20;99583.19;;;17.68;44.60
69982;BME280;57319;56.274;43.980;2023-04-28T06:18:48;99578.75;;;17.70;45.47
69982;BME280;57319;56.274;43.980;2023-04-28T06:21:14;99584.69;;;17.74;44.87
69982;BME280;57319;56.274;43.980;2023-04-28T06:23:40;99584.38;;;17.80;44.32
69982;BME280;57319;56.274;43.980;2023-04-28T06:26:07;99588.47;;;17.86;45.33
69982;BME280;57319;56.274;43.980;2023-04-28T06:28:33;99585.09;;;17.84;44.60
69982;BME280;57319;56.274;43.980;2023-04-28T06:30:59;99591.78;;;17.89;44.88
69982;BME280;57319;56.274;43.980;2023-04-28T06:33:24;99593.13;;;17.98;44.92
69982;BME280;57319;56.274;43.980;2023-04-28T06:35:51;99595.41;;;18.06;44.43
69982;BME280;57319;56.274;43.980;2023-04-28T06:38:17;99590.94;;;18.08;43.92
69982;BME280;57319;56.274;43.980;2023-04-28T06:40:42;99589.22;;;18.08;43.80
69982;BME280;57319;56.274;43.980;2023-04-28T06:43:10;99593.28;;;18.14;44.19
69982;BME280;57319;56.274;43.980;2023-04-28T06:45:36;99592.31;;;18.17;44.11
69982;BME280;57319;56.274;43.980;2023-04-28T06:48:02;99583.44;;;18.21;43.89
69982;BME280;57319;56.274;43.980;2023-04-28T06:50:29;99583.19;;;18.25;43.96
69982;BME280;57319;56.274;43.980;2023-04-28T06:52:55;99588.69;;;18.38;44.10
69982;BME280;57319;56.274;43.980;2023-04-28T06:55:20;99588.03;;;18.52;44.83
69982;BME280;57319;56.274;43.980;2023-04-28T06:57:46;99592.84;;;18.60;44.14
69982;BME280;57319;56.274;43.980;2023-04-28T07:00:12;99593.78;;;18.59;43.77
69982;BME280;57319;56.274;43.980;2023-04-28T07:02:38;99591.84;;;18.62;43.63
69982;BME280;57319;56.274;43.980;2023-04-28T07:05:04;99595.09;;;18.68;43.72
69982;BME280;57319;56.274;43.980;2023-04-28T07:07:31;99596.09;;;18.82;44.10
69982;BME280;57319;56.274;43.980;2023-04-28T07:09:57;99599.88;;;18.94;43.67
69982;BME280;57319;56.274;43.980;2023-04-28T07:12:23;99596.75;;;19.05;43.32
69982;BME280;57319;56.274;43.980;2023-04-28T07:14:49;99597.44;;;19.09;43.30
69982;BME280;57319;56.274;43.980;2023-04-28T07:17:15;99605.66;;;19.19;43.05
69982;BME280;57319;56.274;43.980;2023-04-28T07:19:41;99603.94;;;19.18;42.59
69982;BME280;57319;56.274;43.980;2023-04-28T07:22:08;99600.88;;;19.27;42.67
69982;BME280;57319;56.274;43.980;2023-04-28T07:24:34;99603.03;;;19.36;42.38
69982;BME280;57319;56.274;43.980;2023-04-28T07:27:00;99599.34;;;19.40;41.56
69982;BME280;57319;56.274;43.980;2023-04-28T07:29:26;99591.09;;;19.48;41.66
69982;BME280;57319;56.274;43.980;2023-04-28T07:32:01;99606.06;;;19.62;41.77
69982;BME280;57319;56.274;43.980;2023-04-28T07:34:29;99591.75;;;19.69;41.38
69982;BME280;57319;56.274;43.980;2023-04-28T07:36:55;99586.19;;;19.75;41.38
69982;BME280;57319;56.274;43.980;2023-04-28T07:39:22;99586.81;;;19.80;40.38
69982;BME280;57319;56.274;43.980;2023-04-28T07:41:48;99585.03;;;19.81;40.16
69982;BME280;57319;56.274;43.980;2023-04-28T07:44:14;99589.78;;;19.90;40.57
69982;BME280;57319;56.274;43.980;2023-04-28T07:46:39;99589.19;;;20.01;40.37
69982;BME280;57319;56.274;43.980;2023-04-28T07:49:05;99586.56;;;20.01;39.23
69982;BME280;57319;56.274;43.980;2023-04-28T07:51:32;99585.41;;;20.07;39.73
69982;BME280;57319;56.274;43.980;2023-04-28T07:53:58;99592.91;;;20.13;39.63
69982;BME280;57319;56.274;43.980;2023-04-28T07:56:24;99587.59;;;20.14;39.56
69982;BME280;57319;56.274;43.980;2023-04-28T07:58:50;99579.81;;;20.29;39.21
69982;BME280;57319;56.274;43.980;2023-04-28T08:01:16;99578.38;;;20.39;38.70
69982;BME280;57319;56.274;43.980;2023-04-28T08:03:42;99583.81;;;20.36;39.11
69982;BME280;57319;56.274;43.980;2023-04-28T08:06:08;99583.94;;;20.33;39.11
69982;BME280;57319;56.274;43.980;2023-04-28T08:08:34;99578.91;;;20.30;38.89
69982;BME280;57319;56.274;43.980;2023-04-28T08:11:00;99584.13;;;20.30;38.75
69982;BME280;57319;56.274;43.980;2023-04-28T08:13:26;99583.16;;;20.47;38.77
69982;BME280;57319;56.274;43.980;2023-04-28T08:15:54;99578.88;;;20.46;38.46
69982;BME280;57319;56.274;43.980;2023-04-28T08:18:24;99587.75;;;20.43;38.58
69982;BME280;57319;56.274;43.980;2023-04-28T08:20:50;99585.97;;;20.44;38.25
69982;BME280;57319;56.274;43.980;2023-04-28T08:23:16;99579.50;;;20.35;38.67
69982;BME280;57319;56.274;43.980;2023-04-28T08:25:42;99581.00;;;20.39;38.65
69982;BME280;57319;56.274;43.980;2023-04-28T08:28:07;99574.13;;;20.68;38.31
69982;BME280;57319;56.274;43.980;2023-04-28T08:30:33;99569.19;;;20.94;38.36
69982;BME280;57319;56.274;43.980;2023-04-28T08:32:59;99573.69;;;21.07;38.00
69982;BME280;57319;56.274;43.980;2023-04-28T08:35:25;99571.25;;;21.18;37.49
69982;BME280;57319;56.274;43.980;2023-04-28T08:37:51;99571.00;;;21.37;37.15
69982;BME280;57319;56.274;43.980;2023-04-28T08:40:18;99572.03;;;21.20;37.29
69982;BME280;57319;56.274;43.980;2023-04-28T08:42:44;99562.53;;;21.03;37.44
69982;BME280;57319;56.274;43.980;2023-04-28T08:45:13;99565.41;;;20.84;37.65
69982;BME280;57319;56.274;43.980;2023-04-28T08:47:39;99571.69;;;20.81;37.43
69982;BME280;57319;56.274;43.980;2023-04-28T08:50:11;99562.97;;;20.81;37.88
69982;BME280;57319;56.274;43.980;2023-04-28T08:52:39;99566.97;;;20.72;38.21
69982;BME280;57319;56.274;43.980;2023-04-28T08:55:09;99563.84;;;20.65;37.74
69982;BME280;57319;56.274;43.980;2023-04-28T08:57:43;99558.09;;;20.59;37.75
69982;BME280;57319;56.274;43.980;2023-04-28T09:00:09;99561.31;;;20.64;37.72
69982;BME280;57319;56.274;43.980;2023-04-28T09:02:36;99553.09;;;20.86;37.65
69982;BME280;57319;56.274;43.980;2023-04-28T09:05:12;99556.88;;;21.11;37.08
69982;BME280;57319;56.274;43.980;2023-04-28T09:07:39;99553.03;;;21.02;35.99
69982;BME280;57319;56.274;43.980;2023-04-28T09:10:23;99546.47;;;20.95;35.24
69982;BME280;57319;56.274;43.980;2023-04-28T09:12:51;99551.22;;;20.88;35.66
69982;BME280;57319;56.274;43.980;2023-04-28T09:15:44;99550.47;;;20.86;35.45
69982;BME280;57319;56.274;43.980;2023-04-28T09:18:13;99552.66;;;20.94;36.60
69982;BME280;57319;56.274;43.980;2023-04-28T09:20:39;99561.91;;;20.99;36.87
69982;BME280;57319;56.274;43.980;2023-04-28T09:23:16;99555.66;;;21.02;37.25
69982;BME280;57319;56.274;43.980;2023-04-28T09:25:59;99556.97;;;21.09;37.54
69982;BME280;57319;56.274;43.980;2023-04-28T09:28:25;99556.88;;;21.25;37.36
69982;BME280;57319;56.274;43.980;2023-04-28T09:30:51;99555.94;;;21.26;37.48
69982;BME280;57319;56.274;43.980;2023-04-28T09:33:17;99555.66;;;21.16;36.27
69982;BME280;57319;56.274;43.980;2023-04-28T09:35:43;99554.16;;;21.12;36.37
69982;BME280;57319;56.274;43.980;2023-04-28T09:38:17;99552.84;;;21.05;35.06
69982;BME280;57319;56.274;43.980;2023-04-28T09:40:53;99559.28;;;20.99;35.53
69982;BME280;57319;56.274;43.980;2023-04-28T09:43:30;99563.66;;;20.99;34.25
69982;BME280;57319;56.274;43.980;2023-04-28T09:46:05;99552.28;;;21.00;34.37
69982;BME280;57319;56.274;43.980;2023-04-28T09:48:33;99557.41;;;21.01;35.06
69982;BME280;57319;56.274;43.980;2023-04-28T09:51:01;99560.22;;;20.98;35.16
69982;BME280;57319;56.274;43.980;2023-04-28T09:53:28;99557.50;;;21.00;34.86
69982;BME280;57319;56.274;43.980;2023-04-28T09:55:56;99558.03;;;20.91;34.78
69982;BME280;57319;56.274;43.980;2023-04-28T09:58:23;99564.47;;;20.85;34.96
69982;BME280;57319;56.274;43.980;2023-04-28T10:00:54;99557.34;;;20.73;35.14
69982;BME280;57319;56.274;43.980;2023-04-28T10:03:22;99569.34;;;20.61;35.97
69982;BME280;57319;56.274;43.980;2023-04-28T10:05:48;99575.31;;;20.47;37.05
69982;BME280;57319;56.274;43.980;2023-04-28T10:08:16;99582.34;;;20.30;38.25
69982;BME280;57319;56.274;43.980;2023-04-28T10:10:43;99578.47;;;20.06;39.27
69982;BME280;57319;56.274;43.980;2023-04-28T10:13:09;99581.00;;;19.91;38.88
69982;BME280;57319;56.274;43.980;2023-04-28T10:15:36;99586.41;;;19.88;38.30
69982;BME280;57319;56.274;43.980;2023-04-28T10:18:02;99585.97;;;19.80;38.86
69982;BME280;57319;56.274;43.980;2023-04-28T10:20:29;99596.28;;;19.65;39.30
69982;BME280;57319;56.274;43.980;2023-04-28T10:25:56;99621.28;;;19.19;41.41
69982;BME280;57319;56.274;43.980;2023-04-28T10:28:28;99611.19;;;18.95;42.32
69982;BME280;57319;56.274;43.980;2023-04-28T10:33:37;99609.78;;;18.51;43.29
69982;BME280;57319;56.274;43.980;2023-04-28T10:36:03;99620.00;;;18.37;43.75
69982;BME280;57319;56.274;43.980;2023-04-28T10:38:29;99615.53;;;18.21;44.47
69982;BME280;57319;56.274;43.980;2023-04-28T10:40:55;99623.06;;;18.08;44.79
69982;BME280;57319;56.274;43.980;2023-04-28T10:45:57;99619.81;;;18.03;44.94
69982;BME280;57319;56.274;43.980;2023-04-28T10:56:26;99632.50;;;18.30;44.92
69982;BME280;57319;56.274;43.980;2023-04-28T10:58:56;99633.75;;;18.40;44.91
69982;BME280;57319;56.274;43.980;2023-04-28T11:01:31;99624.03;;;18.44;44.69
69982;BME280;57319;56.274;43.980;2023-04-28T11:04:02;99633.50;;;18.64;44.29
69982;BME280;57319;56.274;43.980;2023-04-28T11:06:37;99634.31;;;18.84;44.53
69982;BME280;57319;56.274;43.980;2023-04-28T11:16:52;99632.19;;;19.27;42.84
69982;BME280;57319;56.274;43.980;2023-04-28T11:19:23;99626.72;;;19.31;42.60
69982;BME280;57319;56.274;43.980;2023-04-28T11:21:51;99628.19;;;19.37;42.44
69982;BME280;57319;56.274;43.980;2023-04-28T11:24:17;99633.78;;;19.47;42.43
69982;BME280;57319;56.274;43.980;2023-04-28T11:26:43;99632.78;;;19.49;42.42
69982;BME280;57319;56.274;43.980;2023-04-28T11:29:10;99624.53;;;19.57;42.37
69982;BME280;57319;56.274;43.980;2023-04-28T11:31:37;99626.22;;;19.76;42.57
69982;BME280;57319;56.274;43.980;2023-04-28T11:34:17;99628.41;;;19.83;42.37
69982;BME280;57319;56.274;43.980;2023-04-28T11:36:43;99620.09;;;19.93;42.05
69982;BME280;57319;56.274;43.980;2023-04-28T11:39:11;99614.56;;;19.99;41.76
69982;BME280;57319;56.274;43.980;2023-04-28T11:41:44;99612.53;;;20.04;39.99
69982;BME280;57319;56.274;43.980;2023-04-28T11:46:55;99614.75;;;20.28;39.54
69982;BME280;57319;56.274;43.980;2023-04-28T11:49:45;99610.25;;;20.14;39.21
69982;BME280;57319;56.274;43.980;2023-04-28T11:52:11;99616.75;;;20.07;39.47
69982;BME280;57319;56.274;43.980;2023-04-28T11:54:38;99619.03;;;20.29;39.28
69982;BME280;57319;56.274;43.980;2023-04-28T11:57:16;99616.66;;;20.72;38.35
69982;BME280;57319;56.274;43.980;2023-04-28T11:59:41;99610.81;;;21.28;37.37
69982;BME280;57319;56.274;43.980;2023-04-28T12:02:08;99609.31;;;21.24;37.51
69982;BME280;57319;56.274;43.980;2023-04-28T12:04:37;99609.78;;;21.30;37.01
69982;BME280;57319;56.274;43.980;2023-04-28T12:09:32;99601.78;;;21.48;35.22
69982;BME280;57319;56.274;43.980;2023-04-28T12:12:00;99598.19;;;21.20;35.51
69982;BME280;57319;56.274;43.980;2023-04-28T12:14:28;99597.22;;;21.07;35.44
69982;BME280;57319;56.274;43.980;2023-04-28T12:16:54;99583.47;;;21.03;35.56
69982;BME280;57319;56.274;43.980;2023-04-28T12:19:21;99579.88;;;21.20;35.35
69982;BME280;57319;56.274;43.980;2023-04-28T12:22:01;99583.25;;;21.51;34.92
69982;BME280;57319;56.274;43.980;2023-04-28T12:24:27;99567.13;;;22.00;34.51
69982;BME280;57319;56.274;43.980;2023-04-28T12:26:53;99572.53;;;22.53;33.27
69982;BME280;57319;56.274;43.980;2023-04-28T12:29:38;99559.72;;;22.07;33.91
69982;BME280;57319;56.274;43.980;2023-04-28T12:32:06;99559.88;;;21.77;34.69
69982;BME280;57319;56.274;43.980;2023-04-28T12:34:32;99562.97;;;21.69;35.83
69982;BME280;57319;56.274;43.980;2023-04-28T12:36:59;99563.25;;;21.35;35.81
69982;BME280;57319;56.274;43.980;2023-04-28T12:39:26;99561.81;;;21.01;35.96
69982;BME280;57319;56.274;43.980;2023-04-28T12:41:52;99549.59;;;20.71;36.63
69982;BME280;57319;56.274;43.980;2023-04-28T12:44:20;99556.97;;;20.48;37.19
69982;BME280;57319;56.274;43.980;2023-04-28T12:46:47;99551.25;;;20.26;37.16
69982;BME280;57319;56.274;43.980;2023-04-28T12:49:13;99554.91;;;20.07;37.50
69982;BME280;57319;56.274;43.980;2023-04-28T12:51:40;99543.50;;;20.08;37.36
69982;BME280;57319;56.274;43.980;2023-04-28T12:54:09;99550.66;;;20.37;37.17
69982;BME280;57319;56.274;43.980;2023-04-28T12:56:35;99548.09;;;20.51;37.24
69982;BME280;57319;56.274;43.980;2023-04-28T12:59:00;99538.78;;;20.31;37.30
69982;BME280;57319;56.274;43.980;2023-04-28T13:01:30;99539.06;;;20.10;38.07
69982;BME280;57319;56.274;43.980;2023-04-28T13:03:56;99525.81;;;19.97;38.21
69982;BME280;57319;56.274;43.980;2023-04-28T13:06:22;99528.94;;;20.20;37.86
69982;BME280;57319;56.274;43.980;2023-04-28T13:08:48;99517.78;;;20.63;36.71
69982;BME280;57319;56.274;43.980;2023-04-28T13:11:13;99514.38;;;20.77;36.66
69982;BME280;57319;56.274;43.980;2023-04-28T13:13:39;99511.72;;;20.93;36.69
69982;BME280;57319;56.274;43.980;2023-04-28T13:16:05;99507.25;;;21.09;36.18
69982;BME280;57319;56.274;43.980;2023-04-28T13:18:31;99509.50;;;21.01;36.31